Terminal Aerodrome Forecast
Issued by NWS

Home | Current Version | Previous Version | Text Only | Print | Product List | Glossary On
Versions: 1 2 3 4 5 6 7 8 9 10 11 12
000
FTUS45 KVEF 170524
TAFHND
TAF
KHND 170524Z 1706/1806 17007KT P6SM FEW100 BKN250
     FM171800 VRB04KT P6SM FEW100 BKN250
     FM180200 17007KT P6SM BKN250=

USA.gov is the U.S. government's official web portal to all federal, state and local government web resources and services.